Time;durP1;ratioP1;P1;durP2;ratioP2;P2;SDS_P1;SDS_P2;PMS_P1;PMS_P2;Temp;Humidity;BMP_temperature;BMP_pressure;BME280_temperature;BME280_humidity;BME280_pressure;Samples;Min_cycle;Max_cycle;Signal;HPM_P1;HPM_P2
2022/04/17 00:00:52;;;;;;;17.93;10.17;;;;;;;1.58;67.87;102150.78;1743163;81;21118;-72
2022/04/17 00:03:21;;;;;;;18.07;9.53;;;;;;;1.52;67.97;102145.02;1742080;80;21016;-72
2022/04/17 00:05:52;;;;;;;20.43;9.53;;;;;;;1.49;68.04;102148.82;1731085;80;21118;-72
2022/04/17 00:08:19;;;;;;;21.80;10.82;;;;;;;1.43;68.13;102146.94;1739114;82;21133;-81
2022/04/17 00:10:47;;;;;;;21.03;9.93;;;;;;;1.39;68.23;102151.58;1741169;80;20986;-71
2022/04/17 00:13:15;;;;;;;19.47;11.07;;;;;;;1.37;68.27;102148.48;1732935;82;21036;-83
2022/04/17 00:15:42;;;;;;;20.07;10.13;;;;;;;1.34;68.34;102150.56;1741199;80;20997;-72
2022/04/17 00:18:09;;;;;;;19.50;10.87;;;;;;;1.29;68.40;102146.55;1744139;81;21572;-72
2022/04/17 00:20:39;;;;;;;17.73;10.33;;;;;;;1.27;68.66;102152.50;1750281;80;21110;-85
2022/04/17 00:23:06;;;;;;;18.87;10.03;;;;;;;1.24;68.61;102147.24;1746804;80;21020;-72
2022/04/17 00:25:33;;;;;;;17.67;10.40;;;;;;;1.18;68.66;102149.66;1724352;82;21028;-72
2022/04/17 00:28:00;;;;;;;19.53;10.27;;;;;;;1.14;68.72;102155.16;1731946;81;21074;-72
2022/04/17 00:30:28;;;;;;;18.67;11.10;;;;;;;1.11;68.79;102149.90;1711802;82;21032;-72
2022/04/17 00:32:55;;;;;;;20.40;10.43;;;;;;;1.06;68.86;102147.59;1714136;81;21812;-72
2022/04/17 00:35:22;;;;;;;18.13;9.53;;;;;;;1.02;68.90;102148.31;1742750;80;21475;-71
2022/04/17 00:37:48;;;;;;;16.80;9.10;;;;;;;0.97;69.04;102153.75;1743775;79;21043;-72
2022/04/17 00:40:16;;;;;;;21.07;10.47;;;;;;;0.94;69.16;102155.81;1730802;82;20993;-71
2022/04/17 00:42:44;;;;;;;15.97;8.73;;;;;;;0.92;69.37;102161.80;1729197;82;21051;-72
2022/04/17 00:45:11;;;;;;;17.80;9.70;;;;;;;0.89;69.47;102161.28;1738196;80;21130;-71
2022/04/17 00:47:38;;;;;;;17.00;9.77;;;;;;;0.89;69.57;102166.45;1702863;82;21483;-72
2022/04/17 00:50:07;;;;;;;16.37;8.47;;;;;;;0.89;69.57;102162.16;1728438;80;20997;-83
2022/04/17 00:52:35;;;;;;;16.03;9.70;;;;;;;0.85;69.51;102160.29;1754882;80;20879;-84
2022/04/17 00:55:05;;;;;;;16.30;8.87;;;;;;;0.82;69.52;102163.20;1762604;80;21040;-72
2022/04/17 00:57:33;;;;;;;17.02;9.05;;;;;;;0.85;69.86;102160.29;1703550;82;21133;-72
2022/04/17 01:00:01;;;;;;;19.10;9.87;;;;;;;0.83;69.62;102152.94;1720579;82;21750;-84
2022/04/17 01:02:28;;;;;;;19.93;9.53;;;;;;;0.81;69.67;102155.00;1736104;82;20992;-84
2022/04/17 01:04:55;;;;;;;19.07;9.80;;;;;;;0.76;69.63;102147.53;1740790;82;21087;-77
2022/04/17 01:07:23;;;;;;;17.50;9.43;;;;;;;0.73;69.74;102151.30;1756458;80;21469;-78
2022/04/17 01:09:51;;;;;;;16.67;9.33;;;;;;;0.69;69.79;102146.44;1753359;80;21091;-73
2022/04/17 01:12:19;;;;;;;17.27;9.03;;;;;;;0.67;69.86;102148.13;1728607;82;21058;-83
2022/04/17 01:14:46;;;;;;;17.73;9.43;;;;;;;0.65;70.06;102141.61;1741545;81;21425;-72
2022/04/17 01:17:13;;;;;;;17.60;9.50;;;;;;;0.66;70.21;102138.19;1734218;80;21073;-79
2022/04/17 01:19:40;;;;;;;18.53;9.93;;;;;;;0.65;70.04;102142.03;1734783;81;21087;-80
2022/04/17 01:22:11;;;;;;;15.67;9.30;;;;;;;0.61;70.23;102137.19;1750016;80;21127;-72
2022/04/17 01:27:26;;;;;;;19.87;10.03;;;;;;;0.59;70.28;102139.26;1753659;81;21040;-77
2022/04/17 01:29:53;;;;;;;20.03;9.43;;;;;;;0.56;70.26;102140.45;1760012;80;21511;-73
2022/04/17 01:32:20;;;;;;;18.57;10.07;;;;;;;0.52;70.33;102136.88;1765266;81;20978;-78
2022/04/17 01:34:48;;;;;;;17.63;9.67;;;;;;;0.52;70.57;102133.01;1757810;80;21116;-72
2022/04/17 01:37:17;;;;;;;18.43;9.57;;;;;;;0.52;70.68;102117.53;1748303;80;21481;-73
2022/04/17 01:39:46;;;;;;;19.60;9.63;;;;;;;0.53;70.73;102115.43;1727690;81;21013;-72
2022/04/17 01:42:16;;;;;;;22.00;10.03;;;;;;;0.51;70.62;102114.91;1741357;80;21039;-72
2022/04/17 01:44:44;;;;;;;21.07;10.07;;;;;;;0.48;70.63;102109.24;1757571;80;21026;-80
2022/04/17 01:47:11;;;;;;;18.17;9.07;;;;;;;0.50;70.84;102106.70;1754976;80;21983;-75
2022/04/17 01:49:38;;;;;;;15.27;9.03;;;;;;;0.50;70.74;102109.27;1729616;81;21047;-72
2022/04/17 01:52:07;;;;;;;16.43;9.27;;;;;;;0.47;70.64;102116.92;1713666;82;21078;-72
2022/04/17 01:54:34;;;;;;;23.30;10.13;;;;;;;0.42;70.65;102120.24;1762893;81;21003;-87
2022/04/17 01:57:01;;;;;;;19.87;10.03;;;;;;;0.46;70.94;102123.79;1745741;80;21431;-72
2022/04/17 01:59:28;;;;;;;18.30;10.33;;;;;;;0.52;70.94;102119.23;1728706;80;21657;-75
2022/04/17 02:01:56;;;;;;;18.00;10.23;;;;;;;0.56;70.96;102131.00;1710446;82;21131;-78
2022/04/17 02:04:26;;;;;;;18.87;10.27;;;;;;;0.58;71.08;102131.94;1670140;84;21683;-74
2022/04/17 02:06:52;;;;;;;19.00;11.17;;;;;;;0.62;71.07;102127.73;1684303;83;21012;-82
2022/04/17 02:09:19;;;;;;;21.67;10.97;;;;;;;0.66;71.12;102134.31;1698473;83;21258;-73
2022/04/17 02:11:47;;;;;;;25.37;11.40;;;;;;;0.71;71.15;102133.17;1693611;83;21494;-73
2022/04/17 02:14:15;;;;;;;23.00;11.03;;;;;;;0.73;71.10;102128.95;1691064;83;21096;-84
2022/04/17 02:16:42;;;;;;;21.23;10.80;;;;;;;0.70;70.81;102129.28;1687238;82;21632;-81
2022/04/17 02:19:12;;;;;;;23.50;11.13;;;;;;;0.69;71.10;102136.12;1722079;82;21072;-71
2022/04/17 02:21:39;;;;;;;19.45;11.38;;;;;;;0.69;70.97;102134.83;1724812;82;21496;-73
2022/04/17 02:24:07;;;;;;;22.70;10.90;;;;;;;0.68;71.14;102133.50;1696592;83;21109;-72
2022/04/17 02:26:34;;;;;;;19.30;11.03;;;;;;;0.70;71.29;102132.73;1690367;84;21162;-82
2022/04/17 02:29:02;;;;;;;20.10;11.33;;;;;;;0.72;71.27;102137.53;1680516;84;21126;-72
2022/04/17 02:31:30;;;;;;;19.13;10.07;;;;;;;0.73;71.15;102140.56;1730268;81;21060;-72
2022/04/17 02:33:59;;;;;;;17.00;9.50;;;;;;;0.71;71.15;102138.34;1740567;82;21588;-72
2022/04/17 02:36:27;;;;;;;22.80;11.10;;;;;;;0.71;71.16;102141.34;1745685;81;21086;-73
2022/04/17 02:38:53;;;;;;;23.30;11.00;;;;;;;0.70;71.00;102146.05;1748277;81;21001;-72
2022/04/17 02:41:20;;;;;;;19.07;9.60;;;;;;;0.63;71.01;102143.25;1742665;80;21640;-80
2022/04/17 02:43:47;;;;;;;16.93;9.90;;;;;;;0.62;71.12;102140.64;1741251;80;21130;-72
2022/04/17 02:47:42;;;;;;;21.17;9.60;;;;;;;0.58;71.01;102139.68;1734504;82;21031;-72
2022/04/17 02:48:43;;;;;;;17.83;9.70;;;;;;;0.53;70.97;102142.52;1714720;81;21292;-84
2022/04/17 02:51:12;;;;;;;17.53;9.37;;;;;;;0.49;71.05;102141.94;1732682;81;20939;-72
2022/04/17 02:53:39;;;;;;;16.53;9.53;;;;;;;0.47;71.32;102137.14;1740707;81;21545;-72
2022/04/17 02:56:06;;;;;;;18.87;10.10;;;;;;;0.48;71.39;102141.91;1740602;81;21474;-83
2022/04/17 02:58:33;;;;;;;17.03;8.93;;;;;;;0.44;71.31;102140.53;1761693;81;20996;-71
2022/04/17 03:06:31;;;;;;;20.60;9.97;;;;;;;0.46;71.50;102144.42;1737714;80;21048;-72
2022/04/17 03:08:58;;;;;;;16.53;8.73;;;;;;;0.44;71.42;102142.20;1740541;80;21000;-72
2022/04/17 03:11:25;;;;;;;16.07;9.50;;;;;;;0.43;71.55;102136.59;1727021;81;21104;-73
2022/04/17 03:13:54;;;;;;;16.83;9.47;;;;;;;0.44;71.83;102132.78;1753751;81;21140;-77
2022/04/17 03:16:21;;;;;;;19.17;9.53;;;;;;;0.51;71.88;102135.55;1724949;81;21155;-72
2022/04/17 03:18:49;;;;;;;15.13;8.57;;;;;;;0.50;71.74;102134.69;1736082;81;21011;-72
2022/04/17 03:21:16;;;;;;;16.10;8.67;;;;;;;0.52;71.73;102127.84;1733601;80;20985;-72
2022/04/17 03:23:43;;;;;;;16.73;8.83;;;;;;;0.52;71.70;102123.98;1735259;80;21031;-73
2022/04/17 03:26:10;;;;;;;16.63;8.93;;;;;;;0.54;71.76;102124.04;1744950;82;21135;-72
2022/04/17 03:28:37;;;;;;;17.20;8.70;;;;;;;0.53;71.68;102124.46;1750003;81;21084;-72
2022/04/17 03:31:04;;;;;;;18.67;9.60;;;;;;;0.53;71.68;102131.33;1746421;81;21568;-85
2022/04/17 03:33:31;;;;;;;15.80;8.73;;;;;;;0.50;71.70;102138.55;1748711;80;21068;-72
2022/04/17 03:35:58;;;;;;;23.00;10.47;;;;;;;0.42;71.55;102131.85;1713561;83;21044;-87
2022/04/17 03:38:25;;;;;;;19.77;10.10;;;;;;;0.39;71.53;102133.47;1698892;82;21067;-75
2022/04/17 03:40:52;;;;;;;17.07;9.30;;;;;;;0.37;71.55;102128.24;1737094;81;20899;-73
2022/04/17 03:43:22;;;;;;;17.90;9.20;;;;;;;0.35;71.62;102124.73;1721138;82;21040;-73
2022/04/17 03:45:49;;;;;;;15.70;9.07;;;;;;;0.34;71.71;102122.98;1725822;82;21041;-77
2022/04/17 03:48:18;;;;;;;19.63;9.77;;;;;;;0.34;71.77;102124.28;1730330;81;21471;-73
2022/04/17 03:50:47;;;;;;;17.57;9.13;;;;;;;0.35;71.72;102124.73;1731820;81;21181;-74
2022/04/17 03:53:14;;;;;;;19.83;8.90;;;;;;;0.34;71.84;102127.28;1732295;82;20973;-72
2022/04/17 03:55:42;;;;;;;18.77;10.27;;;;;;;0.33;71.79;102125.08;1734811;81;21075;-73
2022/04/17 03:58:08;;;;;;;16.00;8.87;;;;;;;0.29;71.74;102118.51;1736905;82;21498;-73
2022/04/17 04:00:36;;;;;;;16.33;8.63;;;;;;;0.28;71.79;102120.60;1736472;82;21458;-73
2022/04/17 04:03:02;;;;;;;19.40;8.80;;;;;;;0.27;71.74;102122.73;1736229;81;21132;-72
2022/04/17 04:05:31;;;;;;;22.20;9.00;;;;;;;0.24;71.92;102129.08;1739318;81;21002;-87
2022/04/17 04:07:58;;;;;;;17.07;8.90;;;;;;;0.24;71.90;102125.22;1735201;80;21001;-73
2022/04/17 04:10:25;;;;;;;15.33;8.83;;;;;;;0.25;72.05;102122.70;1754353;80;21021;-74
2022/04/17 04:12:52;;;;;;;15.77;8.80;;;;;;;0.24;71.99;102118.77;1752360;81;21479;-87
2022/04/17 04:15:19;;;;;;;17.13;8.80;;;;;;;0.27;72.04;102122.73;1746227;80;21127;-72
2022/04/17 04:17:46;;;;;;;16.70;8.83;;;;;;;0.28;72.03;102120.60;1753222;81;22043;-73
2022/04/17 04:20:13;;;;;;;21.23;8.60;;;;;;;0.31;72.20;102127.19;1736700;80;21057;-74
2022/04/17 04:22:40;;;;;;;16.50;9.03;;;;;;;0.34;72.37;102127.28;1734622;81;21488;-72
2022/04/17 04:25:09;;;;;;;18.53;8.53;;;;;;;0.34;72.33;102121.70;1727235;80;21466;-72
2022/04/17 04:30:21;;;;;;;16.70;9.00;;;;;;;0.40;72.60;102121.89;1720372;81;22393;-73
2022/04/17 04:32:56;;;;;;;18.20;9.80;;;;;;;0.47;72.58;102116.92;1711731;81;21040;-73
2022/04/17 04:35:26;;;;;;;17.43;9.20;;;;;;;0.52;72.56;102124.39;1709582;81;21060;-73
2022/04/17 04:37:53;;;;;;;19.67;10.45;;;;;;;0.57;72.57;102118.55;1699949;81;21067;-83
2022/04/17 04:40:20;;;;;;;17.77;9.37;;;;;;;0.61;72.41;102121.70;1707178;81;21557;-72
2022/04/17 04:42:47;;;;;;;17.80;10.57;;;;;;;0.62;72.25;102117.42;1720667;80;21072;-80
2022/04/17 04:47:59;;;;;;;19.73;10.50;;;;;;;0.69;72.41;102121.92;1719418;81;21033;-74
2022/04/17 04:50:26;;;;;;;17.47;9.43;;;;;;;0.72;72.45;102122.05;1737980;81;21107;-78
2022/04/17 04:52:53;;;;;;;15.13;9.43;;;;;;;0.75;72.42;102128.59;1722615;81;22279;-79
2022/04/17 04:55:20;;;;;;;21.50;11.57;;;;;;;0.78;72.66;102126.09;1716057;82;21028;-73
2022/04/17 04:57:47;;;;;;;22.77;11.93;;;;;;;0.81;72.33;102122.31;1710063;82;21099;-74
2022/04/17 05:00:14;;;;;;;18.67;10.40;;;;;;;0.84;72.53;102121.54;1736105;81;21016;-74
2022/04/17 05:02:41;;;;;;;16.83;9.20;;;;;;;0.91;72.69;102114.84;1745895;81;21490;-87
2022/04/17 05:05:10;;;;;;;18.27;9.30;;;;;;;0.98;72.51;102119.38;1714066;80;21027;-74
2022/04/17 05:07:38;;;;;;;17.87;9.43;;;;;;;1.00;72.46;102112.52;1705890;82;21012;-77
2022/04/17 05:10:06;;;;;;;17.60;9.70;;;;;;;1.07;72.60;102115.34;1719720;81;21055;-82
2022/04/17 05:12:34;;;;;;;16.03;8.53;;;;;;;1.12;72.45;102111.61;1717981;82;20953;-84
2022/04/17 05:15:01;;;;;;;17.23;8.63;;;;;;;1.18;72.42;102116.08;1717307;82;21149;-79
2022/04/17 05:17:28;;;;;;;17.10;8.97;;;;;;;1.24;72.51;102114.53;1719571;82;21109;-74
2022/04/17 05:19:55;;;;;;;16.13;8.57;;;;;;;1.29;72.43;102112.96;1731262;82;21008;-71
2022/04/17 05:22:31;;;;;;;17.67;8.67;;;;;;;1.36;72.28;102108.86;1730664;82;21027;-72
2022/04/17 05:24:50;;;;;;;15.83;8.63;;;;;;;1.43;72.50;102109.47;1739521;80;21437;-75
2022/04/17 05:27:17;;;;;;;15.70;8.47;;;;;;;1.54;72.60;102108.48;1751289;80;21021;-75
2022/04/17 05:29:44;;;;;;;17.40;8.43;;;;;;;1.65;72.63;102118.69;1738664;80;21961;-72
2022/04/17 05:32:11;;;;;;;13.70;7.93;;;;;;;1.75;72.67;102119.41;1730550;80;21085;-74
2022/04/17 05:34:38;;;;;;;15.57;7.97;;;;;;;1.89;72.72;102118.48;1733273;81;22093;-71
2022/04/17 05:37:05;;;;;;;17.13;8.67;;;;;;;2.03;72.70;102115.38;1740399;80;21001;-72
2022/04/17 05:39:32;;;;;;;14.93;8.13;;;;;;;2.16;72.42;102109.66;1733245;81;20997;-71
2022/04/17 05:42:00;;;;;;;11.90;7.77;;;;;;;2.25;72.27;102112.49;1734056;80;21978;-72
2022/04/17 05:44:29;;;;;;;15.20;8.73;;;;;;;2.36;72.08;102112.33;1736565;80;21099;-75
2022/04/17 05:46:59;;;;;;;13.90;8.30;;;;;;;2.45;71.99;102112.97;1713887;81;21033;-73
2022/04/17 05:49:26;;;;;;;19.75;8.88;;;;;;;2.49;71.57;102116.49;1727092;82;20989;-72
2022/04/17 05:52:01;;;;;;;13.40;8.27;;;;;;;2.56;71.65;102114.09;1747590;80;21697;-74
2022/04/17 05:54:26;;;;;;;15.03;7.57;;;;;;;2.63;71.54;102106.94;1752752;81;21969;-73
2022/04/17 05:56:52;;;;;;;14.53;7.70;;;;;;;2.74;71.48;102112.75;1758758;80;21528;-76
2022/04/17 05:59:20;;;;;;;13.87;7.77;;;;;;;2.81;71.46;102106.88;1770759;81;21426;-74
2022/04/17 06:01:47;;;;;;;13.67;7.90;;;;;;;2.85;71.39;102106.97;1748223;80;21040;-73
2022/04/17 06:04:16;;;;;;;16.37;7.77;;;;;;;2.94;71.34;102111.89;1756978;80;20986;-74
2022/04/17 06:06:43;;;;;;;13.27;7.93;;;;;;;3.00;71.15;102106.88;1743675;80;21038;-76
2022/04/17 06:09:09;;;;;;;13.33;7.90;;;;;;;3.07;71.10;102112.19;1740924;80;21024;-75
2022/04/17 06:11:37;;;;;;;12.03;7.33;;;;;;;3.16;70.92;102106.36;1748232;80;21044;-75
2022/04/17 06:14:04;;;;;;;14.70;8.07;;;;;;;3.21;70.52;102105.13;1750323;80;21648;-79
2022/04/17 06:16:32;;;;;;;13.17;7.83;;;;;;;3.25;70.56;102101.35;1759163;81;21032;-76
2022/04/17 06:18:59;;;;;;;13.43;7.83;;;;;;;3.34;70.71;102104.55;1739964;80;21131;-76
2022/04/17 06:21:26;;;;;;;15.03;8.50;;;;;;;3.42;70.44;102099.09;1718007;82;21002;-77
2022/04/17 06:23:53;;;;;;;15.97;8.23;;;;;;;3.47;70.39;102099.19;1732760;80;21468;-75
2022/04/17 06:26:20;;;;;;;15.20;7.77;;;;;;;3.51;70.18;102095.80;1706224;81;21083;-79
2022/04/17 06:28:47;;;;;;;12.23;7.33;;;;;;;3.61;70.27;102091.25;1690458;82;21056;-79
2022/04/17 06:31:14;;;;;;;14.33;7.77;;;;;;;3.70;70.20;102086.65;1703434;83;21534;-78
2022/04/17 06:33:40;;;;;;;14.33;8.00;;;;;;;3.78;69.97;102087.66;1695069;83;21095;-76
2022/04/17 06:36:07;;;;;;;14.67;7.10;;;;;;;3.87;70.03;102085.66;1694400;83;21011;-75
2022/04/17 06:38:35;;;;;;;10.30;6.67;;;;;;;3.95;69.86;102083.64;1688312;83;21032;-76
2022/04/17 06:41:03;;;;;;;15.27;7.37;;;;;;;4.02;69.46;102084.20;1709167;80;21026;-78
2022/04/17 06:43:30;;;;;;;12.97;7.37;;;;;;;4.09;69.44;102076.52;1704841;83;21470;-78
2022/04/17 06:45:57;;;;;;;12.60;7.53;;;;;;;4.15;69.33;102077.48;1717082;82;20980;-76
2022/04/17 06:48:25;;;;;;;12.50;7.10;;;;;;;4.22;69.09;102074.58;1743360;81;20993;-76
2022/04/17 06:50:54;;;;;;;11.93;7.13;;;;;;;4.28;68.97;102074.66;1730807;81;21554;-76
2022/04/17 06:53:21;;;;;;;15.40;9.67;;;;;;;4.36;69.05;102076.95;1752474;80;21051;-78
2022/04/17 06:55:49;;;;;;;12.30;7.00;;;;;;;4.46;69.06;102081.84;1746889;80;21136;-75
2022/04/17 06:58:18;;;;;;;10.93;6.43;;;;;;;4.51;68.59;102077.60;1748514;80;20993;-75
2022/04/17 07:00:45;;;;;;;9.97;5.60;;;;;;;4.57;68.57;102083.31;1755987;80;21051;-79
2022/04/17 07:03:17;;;;;;;13.00;6.90;;;;;;;4.63;68.32;102072.61;1751917;80;21016;-82
2022/04/17 07:05:43;;;;;;;15.60;6.00;;;;;;;4.72;68.29;102074.89;1767911;80;21086;-76
2022/04/17 07:08:10;;;;;;;9.90;5.33;;;;;;;4.78;67.83;102078.42;1749007;80;21120;-81
2022/04/17 07:10:40;;;;;;;8.23;5.03;;;;;;;4.84;67.52;102072.44;1746400;80;21503;-78
2022/04/17 07:13:11;;;;;;;11.50;5.47;;;;;;;4.91;67.39;102072.98;1729736;82;21056;-77
2022/04/17 07:15:38;;;;;;;11.67;5.33;;;;;;;4.97;67.22;102071.75;1748354;80;21005;-78
2022/04/17 07:18:05;;;;;;;11.87;6.60;;;;;;;5.05;67.10;102066.66;1731046;80;21016;-78
2022/04/17 07:20:32;;;;;;;10.70;5.33;;;;;;;5.18;66.90;102067.66;1734667;80;21058;-79
2022/04/17 07:23:00;;;;;;;7.77;4.47;;;;;;;5.27;66.50;102064.76;1760274;81;21040;-82
2022/04/17 07:25:27;;;;;;;5.20;3.10;;;;;;;5.39;66.48;102069.66;1747456;80;21021;-81
2022/04/17 07:27:55;;;;;;;7.60;3.33;;;;;;;5.52;66.02;102059.39;1745569;81;21033;-78
2022/04/17 07:30:26;;;;;;;7.47;3.60;;;;;;;5.63;65.65;102066.45;1753010;80;21012;-78
2022/04/17 07:32:56;;;;;;;7.40;4.40;;;;;;;5.71;65.32;102065.66;1755357;80;22079;-80
2022/04/17 07:35:25;;;;;;;9.23;5.00;;;;;;;5.81;65.17;102058.36;1747082;80;21549;-84
2022/04/17 07:38:01;;;;;;;7.40;4.53;;;;;;;5.92;65.04;102057.16;1727697;81;21024;-79
2022/04/17 07:40:34;;;;;;;9.50;6.40;;;;;;;6.01;64.92;102049.89;1726496;80;22010;-79
2022/04/17 07:43:04;;;;;;;24.67;18.47;;;;;;;6.08;64.68;102047.79;1731017;80;21205;-79
2022/04/17 07:45:32;;;;;;;14.07;7.37;;;;;;;6.16;64.33;102050.46;1739046;81;21684;-82
2022/04/17 07:47:59;;;;;;;56.50;19.57;;;;;;;6.24;64.11;102047.48;1756675;80;21001;-83
2022/04/17 07:50:29;;;;;;;11.20;5.77;;;;;;;6.30;63.74;102046.66;1745208;80;21471;-80
2022/04/17 07:52:57;;;;;;;7.47;3.75;;;;;;;6.36;63.54;102043.65;1740439;81;21560;-81
2022/04/17 07:55:24;;;;;;;12.23;5.83;;;;;;;6.45;63.55;102037.63;1737696;80;21016;-80
2022/04/17 07:58:04;;;;;;;9.87;4.80;;;;;;;6.51;63.03;102038.95;1763996;80;21105;-80
2022/04/17 08:00:31;;;;;;;4.93;2.63;;;;;;;6.60;63.11;102032.52;1763618;80;21068;-73
2022/04/17 08:03:20;;;;;;;9.67;6.63;;;;;;;6.68;62.50;102031.27;1762044;79;21064;-76
2022/04/17 08:05:36;;;;;;;5.73;3.00;;;;;;;6.77;62.47;102030.00;1745639;79;21052;-77
2022/04/17 08:08:06;;;;;;;5.30;2.90;;;;;;;6.86;61.95;102031.77;1748020;80;21722;-73
2022/04/17 08:10:34;;;;;;;5.22;3.33;;;;;;;6.95;61.67;102030.94;1746033;80;21139;-74
2022/04/17 08:13:01;;;;;;;8.13;3.80;;;;;;;7.03;61.74;102024.02;1744849;80;21675;-80
2022/04/17 08:15:29;;;;;;;4.70;3.00;;;;;;;7.13;61.34;102023.19;1733939;81;22113;-76
2022/04/17 08:17:56;;;;;;;10.03;4.73;;;;;;;7.19;61.00;102015.38;1733863;81;21410;-76
2022/04/17 08:20:23;;;;;;;18.93;7.30;;;;;;;7.24;60.23;102016.70;1735763;80;21021;-74
2022/04/17 08:22:50;;;;;;;11.67;5.40;;;;;;;7.37;60.30;102014.54;1746756;81;21043;-74
2022/04/17 08:25:17;;;;;;;13.53;6.13;;;;;;;7.49;60.49;102020.23;1748929;81;21422;-75
2022/04/17 08:27:50;;;;;;;7.00;3.13;;;;;;;7.67;60.53;102014.16;1750285;80;21716;-75
2022/04/17 08:30:27;;;;;;;3.73;2.57;;;;;;;7.83;59.77;102015.47;1743519;81;21474;-76
2022/04/17 08:32:54;;;;;;;5.17;2.30;;;;;;;7.94;59.09;102011.99;1749575;81;21325;-75
2022/04/17 08:35:22;;;;;;;6.07;3.07;;;;;;;8.15;59.10;102012.43;1761247;80;21544;-76
2022/04/17 08:37:50;;;;;;;7.27;5.50;;;;;;;8.27;58.39;102007.17;1737809;81;21025;-75
2022/04/17 08:40:17;;;;;;;17.17;7.03;;;;;;;8.41;58.45;102010.66;1763199;81;21075;-77
2022/04/17 08:42:45;;;;;;;17.33;6.87;;;;;;;8.61;58.17;102005.81;1772932;81;21043;-76
2022/04/17 08:45:13;;;;;;;6.73;3.33;;;;;;;8.75;57.80;102009.23;1753558;80;21115;-79
2022/04/17 08:47:42;;;;;;;8.40;4.00;;;;;;;8.92;57.45;102014.40;1765258;81;21057;-84
2022/04/17 08:50:13;;;;;;;12.53;6.23;;;;;;;9.02;56.89;102013.48;1733169;81;21080;-76
2022/04/17 08:52:41;;;;;;;;;;;;;;;9.08;56.36;102010.84;1744960;81;21423;-74
2022/04/17 08:55:09;;;;;;;5.93;3.40;;;;;;;9.23;56.04;102004.67;1736502;80;20140;-74
2022/04/17 08:57:36;;;;;;;6.27;3.20;;;;;;;9.36;56.00;101999.77;1737545;81;21001;-77
2022/04/17 09:00:11;;;;;;;16.63;6.53;;;;;;;9.50;55.78;101991.83;1734475;80;22024;-75
2022/04/17 09:02:38;;;;;;;4.20;2.47;;;;;;;9.60;55.41;101986.95;1748590;79;20985;-75
2022/04/17 09:05:08;;;;;;;19.70;8.93;;;;;;;9.82;55.45;101985.48;1761065;80;21469;-77
2022/04/17 09:07:48;;;;;;;5.87;2.60;;;;;;;9.96;54.98;101986.67;1747644;81;21033;-74
2022/04/17 09:10:30;;;;;;;4.58;2.58;;;;;;;10.04;54.22;101976.55;1735223;81;21356;-74
2022/04/17 09:12:59;;;;;;;6.23;2.80;;;;;;;10.15;54.19;101977.75;1736713;82;21139;-78
2022/04/17 09:15:37;;;;;;;11.73;5.62;;;;;;;10.28;54.11;101977.20;1745344;80;21034;-75
2022/04/17 09:18:08;;;;;;;4.23;2.53;;;;;;;10.43;54.03;101977.50;1737279;81;21071;-74
2022/04/17 09:20:35;;;;;;;9.57;5.30;;;;;;;10.58;53.43;101977.30;1743796;80;21032;-79
2022/04/17 09:23:02;;;;;;;12.37;7.50;;;;;;;10.62;53.04;101976.39;1747957;81;21087;-76
2022/04/17 09:25:29;;;;;;;5.73;3.10;;;;;;;10.75;53.20;101973.16;1754700;80;21127;-82
2022/04/17 09:28:04;;;;;;;5.62;3.67;;;;;;;10.89;52.71;101963.38;1759713;80;20932;-73
2022/04/17 09:30:34;;;;;;;4.97;2.73;;;;;;;10.95;52.28;101959.81;1733762;81;21057;-80
2022/04/17 09:33:11;;;;;;;4.73;2.13;;;;;;;11.03;51.87;101952.70;1758788;80;21644;-78
2022/04/17 09:35:39;;;;;;;4.97;2.70;;;;;;;11.12;51.39;101947.31;1746262;80;21048;-75
2022/04/17 09:38:09;;;;;;;8.38;4.37;;;;;;;11.29;51.29;101944.88;1738568;81;22015;-72
2022/04/17 09:40:37;;;;;;;4.40;2.83;;;;;;;11.46;51.24;101941.99;1733530;80;21013;-74
2022/04/17 09:43:15;;;;;;;5.50;2.60;;;;;;;11.65;50.99;101933.37;1751207;80;21040;-73
2022/04/17 09:46:08;;;;;;;4.92;3.02;;;;;;;11.81;50.29;101936.16;1747875;80;21596;-83
2022/04/17 09:48:45;;;;;;;3.42;2.20;;;;;;;11.90;50.30;101933.84;1750808;80;21056;-81
2022/04/17 09:51:27;;;;;;;3.58;2.20;;;;;;;12.13;50.38;101937.34;1761475;80;21123;-77
2022/04/17 09:54:05;;;;;;;2.92;2.22;;;;;;;12.35;49.81;101936.03;1760392;80;21084;-77
2022/04/17 09:56:45;;;;;;;3.85;2.50;;;;;;;12.52;49.62;101934.38;1764359;79;21016;-78
2022/04/17 09:59:21;;;;;;;5.17;2.60;;;;;;;12.75;49.71;101925.13;1766648;80;21477;-78
2022/04/17 10:01:57;;;;;;;4.87;4.20;;;;;;;12.93;49.07;101919.01;1762942;80;21115;-77
2022/04/17 10:04:26;;;;;;;5.50;3.58;;;;;;;13.06;48.55;101908.22;1753030;80;21137;-77
2022/04/17 10:06:59;;;;;;;3.92;2.87;;;;;;;13.18;48.31;101903.51;1752551;80;21465;-76
2022/04/17 10:09:26;;;;;;;3.12;2.10;;;;;;;13.43;48.35;101908.22;1758698;81;21044;-76
2022/04/17 10:11:56;;;;;;;5.37;2.42;;;;;;;13.64;48.34;101902.02;1755962;80;21045;-79
2022/04/17 10:14:22;;;;;;;4.20;2.77;;;;;;;13.90;47.85;101903.95;1760323;80;21004;-76
2022/04/17 10:16:52;;;;;;;4.05;2.90;;;;;;;14.03;47.43;101894.80;1712632;81;21944;-77
2022/04/17 10:19:24;;;;;;;;;;;;;;;14.13;46.62;101892.30;1696934;83;21076;-77
2022/04/17 10:21:51;;;;;;;3.70;2.45;;;;;;;14.23;46.07;101886.33;1700701;83;20181;-76
2022/04/17 10:24:21;;;;;;;3.95;2.62;;;;;;;14.37;46.23;101880.66;1701958;83;20959;-76
2022/04/17 10:26:51;;;;;;;4.28;2.75;;;;;;;14.53;46.18;101878.02;1713234;82;21298;-76
2022/04/17 10:29:38;;;;;;;5.75;2.75;;;;;;;14.75;45.91;101878.23;1708668;83;21136;-76
2022/04/17 10:32:46;;;;;;;5.58;2.90;;;;;;;14.96;45.67;101875.35;1723692;81;20966;-76
2022/04/17 10:35:55;;;;;;;3.72;2.47;;;;;;;15.21;45.02;101868.81;1740630;80;21067;-76
2022/04/17 10:38:29;;;;;;;5.35;3.92;;;;;;;15.47;44.93;101854.75;1763366;80;21021;-76
2022/04/17 10:41:06;;;;;;;5.35;3.15;;;;;;;15.77;44.78;101859.92;1745469;80;21183;-80
2022/04/17 10:43:50;;;;;;;4.70;2.92;;;;;;;16.08;44.25;101855.71;1737249;80;21122;-76
2022/04/17 10:46:18;;;;;;;4.90;3.10;;;;;;;16.37;44.03;101859.89;1751922;80;21017;-78
2022/04/17 10:48:58;;;;;;;4.25;2.60;;;;;;;16.48;43.48;101851.55;1739730;80;20993;-77
2022/04/17 10:51:38;;;;;;;5.50;2.83;;;;;;;16.70;43.10;101851.11;1751411;80;21096;-77
2022/04/17 10:54:10;;;;;;;4.40;2.83;;;;;;;16.68;42.29;101854.73;1737344;80;20985;-77
2022/04/17 10:56:41;;;;;;;5.97;4.65;;;;;;;16.55;42.35;101841.14;1752326;80;21113;-76
2022/04/17 10:59:24;;;;;;;4.83;3.30;;;;;;;16.63;42.35;101837.73;1745763;80;21048;-77
2022/04/17 11:02:08;;;;;;;4.92;2.87;;;;;;;16.56;41.67;101839.34;1748134;80;21497;-76
2022/04/17 11:04:42;;;;;;;4.20;3.08;;;;;;;16.85;41.85;101836.88;1744137;80;21017;-77
2022/04/17 11:07:14;;;;;;;4.50;3.20;;;;;;;17.07;41.35;101833.78;1755924;80;21525;-76
2022/04/17 11:09:46;;;;;;;7.12;5.08;;;;;;;17.30;41.36;101830.16;1758672;80;21119;-76
2022/04/17 11:12:23;;;;;;;9.43;6.15;;;;;;;17.65;41.34;101829.56;1751436;79;21589;-77
2022/04/17 11:14:59;;;;;;;4.87;3.50;;;;;;;17.83;40.75;101821.69;1747871;80;21582;-76
2022/04/17 11:17:30;;;;;;;6.00;2.87;;;;;;;17.71;40.28;101826.19;1752393;80;20989;-77
2022/04/17 11:19:59;;;;;;;3.17;2.58;;;;;;;17.93;40.57;101818.17;1758069;80;21087;-76
2022/04/17 11:22:29;;;;;;;6.50;4.90;;;;;;;18.23;40.05;101815.88;1751677;80;21297;-79
2022/04/17 11:25:02;;;;;;;4.92;4.10;;;;;;;17.92;39.43;101808.94;1702550;82;21573;-76
2022/04/17 11:27:46;;;;;;;7.55;6.72;;;;;;;17.53;39.15;101808.43;1694293;83;21488;-77
2022/04/17 11:30:08;;;;;;;6.03;4.17;;;;;;;17.16;38.93;101808.69;1705009;83;21064;-77
2022/04/17 11:32:40;;;;;;;5.78;3.42;;;;;;;17.27;39.04;101805.59;1701586;82;21044;-76
2022/04/17 11:35:11;;;;;;;3.22;2.30;;;;;;;17.37;39.15;101802.92;1701808;81;21188;-85
2022/04/17 11:37:39;;;;;;;5.55;3.10;;;;;;;17.69;39.34;101796.69;1691616;83;21111;-82
2022/04/17 11:40:16;;;;;;;7.22;3.77;;;;;;;18.00;39.26;101786.44;1733991;80;21439;-76
2022/04/17 11:42:49;;;;;;;4.58;2.98;;;;;;;18.34;39.01;101774.70;1747550;80;21056;-77
2022/04/17 11:45:26;;;;;;;5.35;2.83;;;;;;;18.53;38.86;101777.34;1746526;80;21023;-77
2022/04/17 11:47:54;;;;;;;10.00;4.95;;;;;;;18.65;38.44;101769.65;1732620;80;21137;-79